createdAt,value
2023-01-10T00:00:47.837Z,7.10
2023-01-10T00:03:15.566Z,9.27
2023-01-10T00:05:43.408Z,8.57
2023-01-10T00:08:14.862Z,7.72
2023-01-10T00:10:42.613Z,7.60
2023-01-10T00:13:26.017Z,7.10
2023-01-10T00:15:55.058Z,8.65
2023-01-10T00:18:24.844Z,7.85
2023-01-10T00:20:52.654Z,8.07
2023-01-10T00:23:20.543Z,8.73
2023-01-10T00:25:48.279Z,7.88
2023-01-10T00:28:22.200Z,11.18
2023-01-10T00:31:01.496Z,9.10
2023-01-10T00:33:32.300Z,8.30
2023-01-10T00:36:00.883Z,8.30
2023-01-10T00:38:28.668Z,9.10
2023-01-10T00:40:56.358Z,8.75
2023-01-10T00:43:42.396Z,10.20
2023-01-10T00:46:10.423Z,10.45
2023-01-10T00:48:38.208Z,12.07
2023-01-10T00:51:06.127Z,10.52
2023-01-10T00:53:33.887Z,9.13
2023-01-10T00:56:01.762Z,9.57
2023-01-10T00:58:29.437Z,8.27
2023-01-10T01:00:57.301Z,9.90
2023-01-10T01:03:25.046Z,9.80
2023-01-10T01:05:53.109Z,7.00
2023-01-10T01:08:20.856Z,9.15
2023-01-10T01:10:48.756Z,7.90
2023-01-10T01:13:21.053Z,8.90
2023-01-10T01:15:48.996Z,9.95
2023-01-10T01:18:21.211Z,8.75
2023-01-10T01:20:52.845Z,6.03
2023-01-10T01:23:20.610Z,8.32
2023-01-10T01:25:52.329Z,8.02
2023-01-10T01:28:20.358Z,7.30
2023-01-10T01:30:48.219Z,7.50
2023-01-10T01:33:16.372Z,6.72
2023-01-10T01:35:44.885Z,8.75
2023-01-10T01:38:12.985Z,8.05
2023-01-10T01:40:42.032Z,8.10
2023-01-10T01:43:28.696Z,8.60
2023-01-10T01:45:56.588Z,8.63
2023-01-10T01:48:31.113Z,8.48
2023-01-10T01:51:08.104Z,6.90
2023-01-10T01:53:44.242Z,7.32
2023-01-10T01:56:21.429Z,6.18
2023-01-10T01:58:56.472Z,5.90
2023-01-10T02:01:24.371Z,5.68
2023-01-10T02:03:54.828Z,5.97
2023-01-10T02:06:22.568Z,5.28
2023-01-10T02:09:39.563Z,4.75
2023-01-10T02:12:07.399Z,7.28
2023-01-10T02:14:35.237Z,5.82
2023-01-10T02:17:03.087Z,5.88
2023-01-10T02:19:54.149Z,7.03
2023-01-10T02:22:46.179Z,5.68
2023-01-10T02:25:26.321Z,6.20
2023-01-10T02:28:00.022Z,4.75
2023-01-10T02:30:46.358Z,5.47
2023-01-10T02:34:09.354Z,7.45
2023-01-10T02:37:00.213Z,6.22
2023-01-10T02:39:47.940Z,5.60
2023-01-10T02:42:28.811Z,7.32
2023-01-10T02:45:03.060Z,8.02
2023-01-10T02:47:40.470Z,8.20
2023-01-10T02:50:36.329Z,7.88
2023-01-10T02:53:07.265Z,7.45
2023-01-10T02:55:55.150Z,8.20
2023-01-10T02:58:45.311Z,7.05
2023-01-10T03:01:22.621Z,6.85
2023-01-10T03:04:05.711Z,6.45
2023-01-10T03:06:35.711Z,6.63
2023-01-10T03:09:07.843Z,6.03
2023-01-10T03:11:42.279Z,7.35
2023-01-10T03:14:30.309Z,7.13
2023-01-10T03:17:00.937Z,7.82
2023-01-10T03:19:32.060Z,7.20
2023-01-10T03:22:00.366Z,6.75
2023-01-10T03:24:34.142Z,7.68
2023-01-10T03:27:19.736Z,8.05
2023-01-10T03:30:22.346Z,7.22
2023-01-10T03:32:50.132Z,8.18
2023-01-10T03:35:17.865Z,8.07
2023-01-10T03:37:47.865Z,9.35
2023-01-10T03:40:15.498Z,9.98
2023-01-10T03:43:20.834Z,9.88
2023-01-10T03:46:01.567Z,9.32
2023-01-10T03:48:30.358Z,11.65
2023-01-10T03:50:58.395Z,12.95
2023-01-10T03:53:26.027Z,14.20
2023-01-10T03:55:53.835Z,13.10
2023-01-10T03:58:22.354Z,13.27
2023-01-10T04:00:50.087Z,12.57
2023-01-10T04:03:17.938Z,9.30
2023-01-10T04:05:46.131Z,7.47
2023-01-10T04:08:13.974Z,8.30
2023-01-10T04:10:41.878Z,8.00
2023-01-10T04:13:09.669Z,7.93
2023-01-10T04:15:37.448Z,8.15
2023-01-10T04:18:05.376Z,9.10
2023-01-10T04:20:33.042Z,12.68
2023-01-10T04:23:00.722Z,11.85
2023-01-10T04:25:28.481Z,11.15
2023-01-10T04:27:56.340Z,8.45
2023-01-10T04:30:24.032Z,8.82
2023-01-10T04:32:51.913Z,7.68
2023-01-10T04:35:19.549Z,6.78
2023-01-10T04:37:47.342Z,8.00
2023-01-10T04:40:17.605Z,9.43
2023-01-10T04:42:45.536Z,5.95
2023-01-10T04:45:14.880Z,6.13
2023-01-10T04:47:42.550Z,6.00
2023-01-10T04:50:10.893Z,7.57
2023-01-10T04:52:38.592Z,7.15
2023-01-10T04:55:06.719Z,7.18
2023-01-10T04:57:34.477Z,5.68
2023-01-10T05:00:02.136Z,3.72
2023-01-10T05:02:30.091Z,3.70
2023-01-10T05:04:57.909Z,5.47
2023-01-10T05:07:25.518Z,4.78
2023-01-10T05:09:53.245Z,6.05
2023-01-10T05:12:20.944Z,6.90
2023-01-10T05:14:48.666Z,7.28
2023-01-10T05:17:16.498Z,8.77
2023-01-10T05:19:44.502Z,7.30
2023-01-10T05:22:12.135Z,7.82
2023-01-10T05:24:39.878Z,7.70
2023-01-10T05:27:07.537Z,7.07
2023-01-10T05:29:35.559Z,4.43
2023-01-10T05:32:03.373Z,4.25
2023-01-10T05:34:31.154Z,3.55
2023-01-10T05:36:58.941Z,3.30
2023-01-10T05:39:27.184Z,3.95
2023-01-10T05:41:55.580Z,3.80
2023-01-10T05:44:23.290Z,3.20
2023-01-10T05:46:51.049Z,2.92
2023-01-10T05:49:18.797Z,2.58
2023-01-10T05:51:46.543Z,2.22
2023-01-10T05:54:14.397Z,3.50
2023-01-10T05:56:42.012Z,2.42
2023-01-10T05:59:27.012Z,2.97
2023-01-10T06:01:55.752Z,3.10
2023-01-10T06:04:23.558Z,4.45
2023-01-10T06:06:51.465Z,3.55
2023-01-10T06:09:19.951Z,4.22
2023-01-10T06:11:48.074Z,4.13
2023-01-10T06:14:19.671Z,4.95
2023-01-10T06:16:48.040Z,4.10
2023-01-10T06:19:15.736Z,2.40
2023-01-10T06:21:43.556Z,3.92
2023-01-10T06:24:11.504Z,4.13
2023-01-10T06:26:39.169Z,3.97
2023-01-10T06:29:06.927Z,3.83
2023-01-10T06:31:34.656Z,3.70
2023-01-10T06:34:02.470Z,3.97
2023-01-10T06:36:30.303Z,4.40
2023-01-10T06:38:58.304Z,6.10
2023-01-10T06:41:26.299Z,5.03
2023-01-10T06:43:54.076Z,4.18
2023-01-10T06:46:23.476Z,4.45
2023-01-10T06:48:51.103Z,3.92
2023-01-10T06:51:20.331Z,2.63
2023-01-10T06:53:48.269Z,4.00
2023-01-10T06:56:16.113Z,3.50
2023-01-10T06:58:43.731Z,2.50
2023-01-10T07:01:15.448Z,3.45
2023-01-10T07:03:44.075Z,4.20
2023-01-10T07:06:12.034Z,2.78
2023-01-10T07:08:43.904Z,3.03
2023-01-10T07:11:11.972Z,4.32
2023-01-10T07:13:40.281Z,5.15
2023-01-10T07:16:09.162Z,4.75
2023-01-10T07:18:37.516Z,5.10
2023-01-10T07:21:06.609Z,4.72
2023-01-10T07:23:34.653Z,4.43
2023-01-10T07:26:06.775Z,6.13
2023-01-10T07:28:37.616Z,4.35
2023-01-10T07:31:06.196Z,3.35
2023-01-10T07:33:34.126Z,3.28
2023-01-10T07:36:02.361Z,3.47
2023-01-10T07:38:30.296Z,3.72
2023-01-10T07:40:58.121Z,3.75
2023-01-10T07:43:25.828Z,2.30
2023-01-10T07:45:53.665Z,2.42
2023-01-10T07:48:21.623Z,2.38
2023-01-10T07:50:49.366Z,2.65
2023-01-10T07:53:17.315Z,1.50
2023-01-10T07:55:46.555Z,1.77
2023-01-10T07:58:14.921Z,2.45
2023-01-10T08:00:42.761Z,1.48
2023-01-10T08:03:13.811Z,0.85
2023-01-10T08:05:41.792Z,1.58
2023-01-10T08:08:10.490Z,1.70
2023-01-10T08:10:39.323Z,1.48
2023-01-10T08:13:18.274Z,2.72
2023-01-10T08:15:47.664Z,3.70
2023-01-10T08:18:15.549Z,2.15
2023-01-10T08:20:43.282Z,3.00
2023-01-10T08:23:10.970Z,2.72
2023-01-10T08:25:39.585Z,4.60
2023-01-10T08:28:07.600Z,3.72
2023-01-10T08:30:35.362Z,4.10
2023-01-10T08:33:04.108Z,3.65
2023-01-10T08:35:31.936Z,3.28
2023-01-10T08:38:00.420Z,3.97
2023-01-10T08:40:28.387Z,4.53
2023-01-10T08:43:06.873Z,3.47
2023-01-10T08:45:34.983Z,1.67
2023-01-10T08:48:02.815Z,2.90
2023-01-10T08:50:31.401Z,5.85
2023-01-10T08:52:59.874Z,4.03
2023-01-10T08:55:28.167Z,3.47
2023-01-10T08:57:56.120Z,4.28
2023-01-10T09:00:24.050Z,2.28
2023-01-10T09:02:52.316Z,1.73
2023-01-10T09:05:27.534Z,3.22
2023-01-10T09:08:00.559Z,3.65
2023-01-10T09:13:00.173Z,3.25
2023-01-10T09:15:35.873Z,3.40
2023-01-10T09:18:05.360Z,3.13
2023-01-10T09:20:34.421Z,3.67
2023-01-10T09:23:09.417Z,3.25
2023-01-10T09:25:37.256Z,3.53
2023-01-10T09:28:05.518Z,3.03
2023-01-10T09:30:33.472Z,2.78
2023-01-10T09:33:01.351Z,3.63
2023-01-10T09:35:29.735Z,4.10
2023-01-10T09:37:58.248Z,5.30
2023-01-10T09:40:38.329Z,4.00
2023-01-10T09:43:31.616Z,3.25
2023-01-10T09:46:02.218Z,2.65
2023-01-10T09:49:01.480Z,4.57
2023-01-10T09:51:38.305Z,7.35
2023-01-10T09:54:28.994Z,11.30
2023-01-10T09:56:56.918Z,6.47
2023-01-10T09:59:27.348Z,4.75
2023-01-10T10:02:21.160Z,4.70
2023-01-10T10:05:10.923Z,4.13
2023-01-10T10:07:38.637Z,5.57
2023-01-10T10:10:19.761Z,5.97
2023-01-10T10:12:50.069Z,7.03
2023-01-10T10:15:31.191Z,7.28
2023-01-10T10:18:15.439Z,6.80
2023-01-10T10:20:49.354Z,6.00
2023-01-10T10:23:29.413Z,4.07
2023-01-10T10:26:06.104Z,3.42
2023-01-10T10:28:55.136Z,3.25
2023-01-10T10:31:51.238Z,2.33
2023-01-10T10:34:29.191Z,3.13
2023-01-10T10:37:01.996Z,3.20
2023-01-10T10:39:38.960Z,3.70
2023-01-10T10:42:10.726Z,6.25
2023-01-10T10:45:00.984Z,5.50
2023-01-10T10:47:33.095Z,5.03
2023-01-10T10:50:16.115Z,5.80
2023-01-10T10:52:44.494Z,5.57
2023-01-10T10:55:19.751Z,5.40
2023-01-10T10:57:59.500Z,4.70
2023-01-10T11:00:28.566Z,5.50
2023-01-10T11:03:04.679Z,4.90
2023-01-10T11:05:41.365Z,4.15
2023-01-10T11:08:16.852Z,3.47
2023-01-10T11:10:48.125Z,3.92
2023-01-10T11:13:28.220Z,3.88
2023-01-10T11:15:56.360Z,4.53
2023-01-10T11:18:28.673Z,4.90
2023-01-10T11:21:06.008Z,4.55
2023-01-10T11:23:56.414Z,5.90
2023-01-10T11:26:34.720Z,7.32
2023-01-10T11:29:19.583Z,7.05
2023-01-10T11:31:47.661Z,6.60
2023-01-10T11:34:31.067Z,8.20
2023-01-10T11:37:06.893Z,7.78
2023-01-10T11:39:34.687Z,5.18
2023-01-10T11:42:25.592Z,6.00
2023-01-10T11:44:53.266Z,5.07
2023-01-10T11:47:21.287Z,6.03
2023-01-10T11:49:49.385Z,4.65
2023-01-10T11:52:37.246Z,5.15
2023-01-10T11:55:07.782Z,4.68
2023-01-10T11:57:35.742Z,4.63
2023-01-10T12:00:06.140Z,6.63
2023-01-10T12:02:46.328Z,9.00
2023-01-10T12:05:21.348Z,8.77
2023-01-10T12:07:58.824Z,8.35
2023-01-10T12:10:28.379Z,5.05
2023-01-10T12:12:58.531Z,5.85
2023-01-10T12:15:31.229Z,3.72
2023-01-10T12:18:00.517Z,10.55
2023-01-10T12:20:32.538Z,9.10
2023-01-10T12:23:04.582Z,7.53
2023-01-10T12:25:39.414Z,5.20
2023-01-10T12:28:22.558Z,7.32
2023-01-10T12:30:50.762Z,6.13
2023-01-10T12:33:22.085Z,7.38
2023-01-10T12:36:09.849Z,5.97
2023-01-10T12:39:06.452Z,7.97
2023-01-10T12:42:01.684Z,6.03
2023-01-10T12:44:31.305Z,5.55
2023-01-10T12:47:09.151Z,3.72
2023-01-10T12:49:46.474Z,8.15
2023-01-10T12:52:46.038Z,9.13
2023-01-10T12:55:20.475Z,8.50
2023-01-10T12:57:51.915Z,8.38
2023-01-10T13:00:25.583Z,9.05
2023-01-10T13:02:55.549Z,7.25
2023-01-10T13:05:30.444Z,7.35
2023-01-10T13:08:05.243Z,8.48
2023-01-10T13:10:42.562Z,7.10
2023-01-10T13:13:39.052Z,7.55
2023-01-10T13:16:07.525Z,6.15
2023-01-10T13:18:35.432Z,6.90
2023-01-10T13:21:09.252Z,6.57
2023-01-10T13:23:41.339Z,8.40
2023-01-10T13:26:09.898Z,8.73
2023-01-10T13:28:42.099Z,9.40
2023-01-10T13:31:41.055Z,8.27
2023-01-10T13:34:15.029Z,7.13
2023-01-10T13:36:45.566Z,6.15
2023-01-10T13:39:30.872Z,7.18
2023-01-10T13:42:16.923Z,6.03
2023-01-10T13:45:03.899Z,6.60
2023-01-10T13:47:54.849Z,7.07
2023-01-10T13:50:34.203Z,7.90
2023-01-10T13:53:02.730Z,15.70
2023-01-10T13:55:37.061Z,13.80
2023-01-10T13:58:17.043Z,12.23
2023-01-10T14:01:14.260Z,17.80
2023-01-10T14:03:56.610Z,8.60
2023-01-10T14:06:30.468Z,12.23
2023-01-10T14:09:22.577Z,7.18
2023-01-10T14:12:19.416Z,5.72
2023-01-10T14:15:08.249Z,6.10
2023-01-10T14:17:36.731Z,1.60
2023-01-10T14:20:06.093Z,5.43
2023-01-10T14:22:39.635Z,9.07
2023-01-10T14:25:16.443Z,8.93
2023-01-10T14:27:45.783Z,7.90
2023-01-10T14:30:23.702Z,6.35
2023-01-10T14:32:52.770Z,4.75
2023-01-10T14:35:25.740Z,4.20
2023-01-10T14:37:59.699Z,2.97
2023-01-10T14:40:43.671Z,3.45
2023-01-10T14:43:20.008Z,4.25
2023-01-10T14:46:08.183Z,3.63
2023-01-10T14:48:40.759Z,5.07
2023-01-10T14:51:22.107Z,5.50
2023-01-10T14:54:24.058Z,6.30
2023-01-10T14:56:52.813Z,6.38
2023-01-10T14:59:27.076Z,4.50
2023-01-10T15:02:26.101Z,3.80
2023-01-10T15:05:08.161Z,3.83
2023-01-10T15:07:36.463Z,4.38
2023-01-10T15:10:22.565Z,3.95
2023-01-10T15:12:52.647Z,5.53
2023-01-10T15:15:22.317Z,5.30
2023-01-10T15:17:50.071Z,4.88
2023-01-10T15:20:18.505Z,3.50
2023-01-10T15:22:48.848Z,3.22
2023-01-10T15:25:19.632Z,3.92
2023-01-10T15:27:50.926Z,3.25
2023-01-10T15:30:20.134Z,5.03
2023-01-10T15:32:49.417Z,3.17
2023-01-10T15:35:20.551Z,3.97
2023-01-10T15:37:54.520Z,4.97
2023-01-10T15:40:24.091Z,5.28
2023-01-10T15:42:52.264Z,4.93
2023-01-10T15:45:37.921Z,3.72
2023-01-10T15:48:06.213Z,4.70
2023-01-10T15:50:40.633Z,3.25
2023-01-10T15:53:10.189Z,4.18
2023-01-10T15:55:49.581Z,4.53
2023-01-10T15:58:31.563Z,4.85
2023-01-10T16:00:59.828Z,3.30
2023-01-10T16:03:30.574Z,3.55
2023-01-10T16:05:59.789Z,4.30
2023-01-10T16:08:35.246Z,3.33
2023-01-10T16:11:08.494Z,4.30
2023-01-10T16:13:37.809Z,3.15
2023-01-10T16:16:09.238Z,3.78
2023-01-10T16:18:36.903Z,1.80
2023-01-10T16:21:05.126Z,1.30
2023-01-10T16:23:33.781Z,2.13
2023-01-10T16:26:03.731Z,2.30
2023-01-10T16:28:36.446Z,3.75
2023-01-10T16:31:09.935Z,2.20
2023-01-10T16:33:37.984Z,2.40
2023-01-10T16:36:14.224Z,3.20
2023-01-10T16:38:41.926Z,3.03
2023-01-10T16:41:34.136Z,4.65
2023-01-10T16:44:02.192Z,2.13
2023-01-10T16:46:30.601Z,3.28
2023-01-10T16:48:58.365Z,2.58
2023-01-10T16:51:32.872Z,4.18
2023-01-10T16:54:00.834Z,3.38
2023-01-10T16:56:29.314Z,3.83
2023-01-10T16:58:57.212Z,4.03
2023-01-10T17:01:30.547Z,4.45
2023-01-10T17:03:58.491Z,3.95
2023-01-10T17:06:26.487Z,4.75
2023-01-10T17:08:54.298Z,5.25
2023-01-10T17:11:26.768Z,6.60
2023-01-10T17:13:54.600Z,5.50
2023-01-10T17:16:22.287Z,7.50
2023-01-10T17:18:49.971Z,7.40
2023-01-10T17:21:19.797Z,4.18
2023-01-10T17:23:47.633Z,3.83
2023-01-10T17:26:16.204Z,4.15
2023-01-10T17:28:46.186Z,3.95
2023-01-10T17:31:13.818Z,4.00
2023-01-10T17:33:41.427Z,4.38
2023-01-10T17:36:09.360Z,4.10
2023-01-10T17:38:38.108Z,4.07
2023-01-10T17:41:07.628Z,8.77
2023-01-10T17:43:35.533Z,6.25
2023-01-10T17:46:05.986Z,6.25
2023-01-10T17:48:35.116Z,5.35
2023-01-10T17:51:02.827Z,3.33
2023-01-10T17:53:30.676Z,3.95
2023-01-10T17:56:00.427Z,2.97
2023-01-10T17:58:28.406Z,3.20
2023-01-10T18:00:56.298Z,3.17
2023-01-10T18:03:24.200Z,2.88
2023-01-10T18:05:53.275Z,2.85
2023-01-10T18:08:21.439Z,2.50
2023-01-10T18:10:49.192Z,2.47
2023-01-10T18:13:17.838Z,1.90
2023-01-10T18:15:47.809Z,2.47
2023-01-10T18:18:15.677Z,2.90
2023-01-10T18:20:44.193Z,2.72
2023-01-10T18:23:25.458Z,1.52
2023-01-10T18:26:02.722Z,1.38
2023-01-10T18:28:42.158Z,1.90
2023-01-10T18:31:12.321Z,1.48
2023-01-10T18:33:40.059Z,2.97
2023-01-10T18:36:09.429Z,1.77
2023-01-10T18:38:37.275Z,2.72
2023-01-10T18:41:05.215Z,2.40
2023-01-10T18:43:33.363Z,2.35
2023-01-10T18:46:07.899Z,2.20
2023-01-10T18:48:35.847Z,2.90
2023-01-10T18:51:04.181Z,3.95
2023-01-10T18:53:32.049Z,4.18
2023-01-10T18:56:01.016Z,4.20
2023-01-10T18:58:31.296Z,4.80
2023-01-10T19:00:59.040Z,4.32
2023-01-10T19:03:26.808Z,4.30
2023-01-10T19:05:54.486Z,4.43
2023-01-10T19:08:22.223Z,3.38
2023-01-10T19:11:11.748Z,3.15
2023-01-10T19:13:37.925Z,3.42
2023-01-10T19:16:20.059Z,3.08
2023-01-10T19:18:52.923Z,2.38
2023-01-10T19:21:20.960Z,3.10
2023-01-10T19:23:50.255Z,3.35
2023-01-10T19:26:18.159Z,3.60
2023-01-10T19:28:46.103Z,2.92
2023-01-10T19:31:21.128Z,2.20
2023-01-10T19:33:50.861Z,2.97
2023-01-10T19:36:19.337Z,3.80
2023-01-10T19:38:47.092Z,2.15
2023-01-10T19:41:14.852Z,5.32
2023-01-10T19:43:42.597Z,5.55
2023-01-10T19:46:11.472Z,5.28
2023-01-10T19:48:39.641Z,5.35
2023-01-10T19:51:12.375Z,4.82
2023-01-10T19:53:47.283Z,2.72
2023-01-10T19:56:22.357Z,4.18
2023-01-10T19:58:50.423Z,1.92
2023-01-10T20:01:29.309Z,2.00
2023-01-10T20:03:58.236Z,2.78
2023-01-10T20:06:27.121Z,2.53
2023-01-10T20:08:55.180Z,2.65
2023-01-10T20:11:26.512Z,1.08
2023-01-10T20:13:55.050Z,1.55
2023-01-10T20:16:23.673Z,2.60
2023-01-10T20:18:52.165Z,2.33
2023-01-10T20:21:19.890Z,1.58
2023-01-10T20:23:48.149Z,2.25
2023-01-10T20:26:26.875Z,2.05
2023-01-10T20:28:56.581Z,2.35
2023-01-10T20:31:24.752Z,2.90
2023-01-10T20:33:52.629Z,1.75
2023-01-10T20:36:22.083Z,1.98
2023-01-10T20:38:49.904Z,1.95
2023-01-10T20:41:19.648Z,2.60
2023-01-10T20:43:47.530Z,2.75
2023-01-10T20:46:17.580Z,2.55
2023-01-10T20:48:45.694Z,2.67
2023-01-10T20:51:16.441Z,2.55
2023-01-10T20:53:44.755Z,3.85
2023-01-10T20:56:14.868Z,3.28
2023-01-10T20:58:42.850Z,3.08
2023-01-10T21:01:10.926Z,2.92
2023-01-10T21:03:39.340Z,2.92
2023-01-10T21:06:07.229Z,3.03
2023-01-10T21:08:34.983Z,2.63
2023-01-10T21:11:02.736Z,2.92
2023-01-10T21:13:30.352Z,2.22
2023-01-10T21:15:58.384Z,2.67
2023-01-10T21:18:46.599Z,2.97
2023-01-10T21:21:18.959Z,4.80
2023-01-10T21:23:46.845Z,3.80
2023-01-10T21:26:15.268Z,3.70
2023-01-10T21:28:46.929Z,4.72
2023-01-10T21:31:19.446Z,3.80
2023-01-10T21:33:47.319Z,3.97
2023-01-10T21:36:15.094Z,4.25
2023-01-10T21:38:42.804Z,5.07
2023-01-10T21:41:36.411Z,3.00
2023-01-10T21:44:05.130Z,4.95
2023-01-10T21:46:32.854Z,5.13
2023-01-10T21:49:02.075Z,4.28
2023-01-10T21:51:29.864Z,4.32
2023-01-10T21:53:58.093Z,3.97
2023-01-10T21:56:25.954Z,4.53
2023-01-10T21:58:53.694Z,3.88
2023-01-10T22:01:21.455Z,3.60
2023-01-10T22:03:50.005Z,2.75
2023-01-10T22:06:17.736Z,3.72
2023-01-10T22:08:45.453Z,2.92
2023-01-10T22:11:13.190Z,2.88
2023-01-10T22:13:41.015Z,3.28
2023-01-10T22:16:08.977Z,3.00
2023-01-10T22:18:36.627Z,3.00
2023-01-10T22:21:04.409Z,2.47
2023-01-10T22:23:32.071Z,1.55
2023-01-10T22:26:10.582Z,1.48
2023-01-10T22:28:38.355Z,2.13
2023-01-10T22:31:06.426Z,1.63
2023-01-10T22:33:36.131Z,1.80
2023-01-10T22:36:08.854Z,1.48
2023-01-10T22:38:36.516Z,1.58
2023-01-10T22:41:08.670Z,1.17
2023-01-10T22:46:04.826Z,1.67
2023-01-10T22:48:32.444Z,2.13
2023-01-10T22:51:01.729Z,2.42
2023-01-10T22:53:29.467Z,2.25
2023-01-10T22:55:59.706Z,2.80
2023-01-10T22:58:27.585Z,1.77
2023-01-10T23:00:55.363Z,2.15
2023-01-10T23:03:23.259Z,1.35
2023-01-10T23:05:57.481Z,2.10
2023-01-10T23:08:26.097Z,2.53
2023-01-10T23:10:56.829Z,1.95
2023-01-10T23:13:24.872Z,3.13
2023-01-10T23:15:59.076Z,4.22
2023-01-10T23:18:27.418Z,5.07
2023-01-10T23:20:55.430Z,5.10
2023-01-10T23:23:23.852Z,6.40
2023-01-10T23:26:01.787Z,4.40
2023-01-10T23:28:31.319Z,5.47
2023-01-10T23:30:59.025Z,3.75
2023-01-10T23:33:26.795Z,3.38
2023-01-10T23:35:54.648Z,3.53
2023-01-10T23:38:22.310Z,2.50
2023-01-10T23:40:50.098Z,4.05
2023-01-10T23:43:17.895Z,3.30
2023-01-10T23:45:45.711Z,3.80
2023-01-10T23:48:13.630Z,2.92
2023-01-10T23:50:41.263Z,3.25
2023-01-10T23:53:09.174Z,3.38
2023-01-10T23:55:36.842Z,4.38
2023-01-10T23:58:04.601Z,3.05
